createdAt,value
2023-01-28T00:00:36.584Z,99.85
2023-01-28T00:01:45.777Z,100.09
2023-01-28T00:02:54.943Z,101.8
2023-01-28T00:04:04.133Z,101.07
2023-01-28T00:05:12.475Z,100.83
2023-01-28T00:06:21.479Z,100.83
2023-01-28T00:07:30.636Z,101.07
2023-01-28T00:08:39.803Z,100.09
2023-01-28T00:09:48.981Z,100.09
2023-01-28T00:10:58.152Z,102.05
2023-01-28T00:12:06.366Z,102.78
2023-01-28T00:13:14.544Z,99.6
2023-01-28T00:14:22.734Z,101.8
2023-01-28T00:15:30.944Z,101.8
2023-01-28T00:16:40.145Z,101.07
2023-01-28T00:17:49.269Z,101.8
2023-01-28T00:18:58.434Z,102.29
2023-01-28T00:20:07.615Z,103.02
2023-01-28T00:21:16.844Z,103.51
2023-01-28T00:22:25.957Z,106.2
2023-01-28T00:23:35.139Z,108.64
2023-01-28T00:24:44.323Z,109.13
2023-01-28T00:25:53.477Z,110.1
2023-01-28T00:27:02.719Z,109.13
2023-01-28T00:28:11.822Z,109.13
2023-01-28T00:29:21.013Z,109.86
2023-01-28T00:30:29.366Z,107.17
2023-01-28T00:31:38.413Z,105.95
2023-01-28T00:32:47.666Z,104.98
2023-01-28T00:33:56.705Z,103.27
2023-01-28T00:35:06.016Z,105.46
2023-01-28T00:36:15.045Z,102.78
2023-01-28T00:37:24.302Z,102.53
2023-01-28T00:38:32.492Z,102.29
2023-01-28T00:39:40.747Z,104
2023-01-28T00:40:49.861Z,102.78
2023-01-28T00:41:58.951Z,101.07
2023-01-28T00:43:08.184Z,101.8
2023-01-28T00:44:17.313Z,98.87
2023-01-28T00:45:26.618Z,100.34
2023-01-28T00:46:35.743Z,102.78
2023-01-28T00:47:44.845Z,100.83
2023-01-28T00:48:54.090Z,101.8
2023-01-28T00:50:03.165Z,99.6
2023-01-28T00:51:12.351Z,99.12
2023-01-28T00:52:21.518Z,99.6
2023-01-28T00:53:30.682Z,100.58
2023-01-28T00:54:38.879Z,101.31
2023-01-28T00:55:48.051Z,98.14
2023-01-28T00:56:57.223Z,98.14
2023-01-28T00:58:06.416Z,99.6
2023-01-28T00:59:15.568Z,100.34
2023-01-28T01:00:24.731Z,104.49
2023-01-28T01:01:33.931Z,100.34
2023-01-28T01:02:42.142Z,100.34
2023-01-28T01:03:50.381Z,100.58
2023-01-28T01:04:58.496Z,100.09
2023-01-28T01:06:06.702Z,100.83
2023-01-28T01:07:15.861Z,100.58
2023-01-28T01:08:25.030Z,101.07
2023-01-28T01:09:34.209Z,99.36
2023-01-28T01:10:43.371Z,98.63
2023-01-28T01:11:52.711Z,98.14
2023-01-28T01:13:01.737Z,98.63
2023-01-28T01:14:10.898Z,98.63
2023-01-28T01:15:20.065Z,100.58
2023-01-28T01:16:29.234Z,99.6
2023-01-28T01:17:38.423Z,99.6
2023-01-28T01:18:47.652Z,100.34
2023-01-28T01:19:56.759Z,102.78
2023-01-28T01:21:04.945Z,100.83
2023-01-28T01:22:14.173Z,99.85
2023-01-28T01:23:23.293Z,100.58
2023-01-28T01:24:32.461Z,102.29
2023-01-28T01:25:41.734Z,100.83
2023-01-28T01:26:50.817Z,102.53
2023-01-28T01:27:59.981Z,100.09
2023-01-28T01:29:08.201Z,102.53
2023-01-28T01:30:16.414Z,99.6
2023-01-28T01:31:24.630Z,98.87
2023-01-28T01:32:32.804Z,99.36
2023-01-28T01:33:41.922Z,98.63
2023-01-28T01:34:51.090Z,102.05
2023-01-28T01:36:00.407Z,102.78
2023-01-28T01:37:09.454Z,101.56
2023-01-28T01:38:18.667Z,101.56
2023-01-28T01:39:27.794Z,101.31
2023-01-28T01:40:37.031Z,100.34
2023-01-28T01:41:46.151Z,99.36
2023-01-28T01:42:55.305Z,101.31
2023-01-28T01:44:04.487Z,101.56
2023-01-28T01:45:13.846Z,101.07
2023-01-28T01:46:22.826Z,100.34
2023-01-28T01:47:31.097Z,101.8
2023-01-28T01:48:40.227Z,101.8
2023-01-28T01:49:49.364Z,100.34
2023-01-28T01:50:58.559Z,100.34
2023-01-28T01:52:07.722Z,100.58
2023-01-28T01:53:16.904Z,102.05
2023-01-28T01:54:26.067Z,99.36
2023-01-28T01:55:34.252Z,99.6
2023-01-28T01:56:42.521Z,100.83
2023-01-28T01:57:50.680Z,99.6
2023-01-28T01:58:58.850Z,98.38
2023-01-28T02:00:07.996Z,97.9
2023-01-28T02:01:17.182Z,103.27
2023-01-28T02:02:26.341Z,99.36
2023-01-28T02:03:35.521Z,100.58
2023-01-28T02:04:44.719Z,98.87
2023-01-28T02:05:53.948Z,97.16
2023-01-28T02:07:03.035Z,97.41
2023-01-28T02:08:12.214Z,99.36
2023-01-28T02:09:21.512Z,98.14
2023-01-28T02:10:30.570Z,100.34
2023-01-28T02:11:39.728Z,97.41
2023-01-28T02:12:48.984Z,99.6
2023-01-28T02:13:57.096Z,99.6
2023-01-28T02:15:06.258Z,98.87
2023-01-28T02:16:15.436Z,96.19
2023-01-28T02:17:24.656Z,99.85
2023-01-28T02:18:33.787Z,98.63
2023-01-28T02:19:42.962Z,101.07
2023-01-28T02:20:52.161Z,98.63
2023-01-28T02:22:00.352Z,98.63
2023-01-28T02:23:08.513Z,98.14
2023-01-28T02:24:16.714Z,99.12
2023-01-28T02:25:24.927Z,99.6
2023-01-28T02:26:34.086Z,99.36
2023-01-28T02:27:43.265Z,97.41
2023-01-28T02:28:52.470Z,99.85
2023-01-28T02:30:01.589Z,98.14
2023-01-28T02:31:10.757Z,98.14
2023-01-28T02:32:19.958Z,98.87
2023-01-28T02:33:29.174Z,97.41
2023-01-28T02:34:37.441Z,99.12
2023-01-28T02:35:46.534Z,100.83
2023-01-28T02:36:55.652Z,95.94
2023-01-28T02:38:04.905Z,97.41
2023-01-28T02:39:13.998Z,95.94
2023-01-28T02:40:23.184Z,96.92
2023-01-28T02:41:32.363Z,96.92
2023-01-28T02:42:41.521Z,94.72
2023-01-28T02:43:50.703Z,94.72
2023-01-28T02:44:59.857Z,95.45
2023-01-28T02:46:09.085Z,95.21
2023-01-28T02:47:18.268Z,94.97
2023-01-28T02:48:26.396Z,94.72
2023-01-28T02:49:34.642Z,94.23
2023-01-28T02:50:42.789Z,91.55
2023-01-28T02:51:51.003Z,93.99
2023-01-28T02:53:00.153Z,93.26
2023-01-28T02:54:09.642Z,92.28
2023-01-28T02:55:18.502Z,91.55
2023-01-28T02:56:27.800Z,92.28
2023-01-28T02:57:36.846Z,94.48
2023-01-28T02:58:46.156Z,92.28
2023-01-28T02:59:55.195Z,92.28
2023-01-28T03:01:04.362Z,93.01
2023-01-28T03:02:13.703Z,91.3
2023-01-28T03:03:22.708Z,94.72
2023-01-28T03:04:31.889Z,91.06
2023-01-28T03:05:41.062Z,94.48
2023-01-28T03:06:49.276Z,92.04
2023-01-28T03:07:58.468Z,91.06
2023-01-28T03:09:07.590Z,90.82
2023-01-28T03:10:16.760Z,90.08
2023-01-28T03:11:25.950Z,88.13
2023-01-28T03:12:35.108Z,87.15
2023-01-28T03:13:44.293Z,87.64
2023-01-28T03:14:52.476Z,87.89
2023-01-28T03:16:00.728Z,89.11
2023-01-28T03:17:09.853Z,89.59
2023-01-28T03:18:19.045Z,88.86
2023-01-28T03:19:28.187Z,86.66
2023-01-28T03:20:37.396Z,87.4
2023-01-28T03:21:46.676Z,87.64
2023-01-28T03:22:55.864Z,87.64
2023-01-28T03:24:04.957Z,86.18
2023-01-28T03:25:14.180Z,87.15
2023-01-28T03:26:23.307Z,88.37
2023-01-28T03:27:32.479Z,87.64
2023-01-28T03:28:41.562Z,87.89
2023-01-28T03:29:50.903Z,86.66
2023-01-28T03:30:58.947Z,87.89
2023-01-28T03:32:08.107Z,86.91
2023-01-28T03:33:17.331Z,88.37
2023-01-28T03:34:26.444Z,89.35
2023-01-28T03:35:35.726Z,87.4
2023-01-28T03:36:44.866Z,88.37
2023-01-28T03:37:54.026Z,91.06
2023-01-28T03:39:02.227Z,90.82
2023-01-28T03:40:10.371Z,90.57
2023-01-28T03:41:19.558Z,92.04
2023-01-28T03:42:28.699Z,91.06
2023-01-28T03:43:37.887Z,92.52
2023-01-28T03:44:47.057Z,93.26
2023-01-28T03:45:56.396Z,92.04
2023-01-28T03:47:05.482Z,90.08
2023-01-28T03:48:14.590Z,91.79
2023-01-28T03:49:23.745Z,94.23
2023-01-28T03:50:32.960Z,92.52
2023-01-28T03:51:42.095Z,94.97
2023-01-28T03:52:51.261Z,94.23
2023-01-28T03:54:00.430Z,96.43
2023-01-28T03:55:08.747Z,96.92
2023-01-28T03:56:17.834Z,94.97
2023-01-28T03:57:26.968Z,96.92
2023-01-28T03:58:36.151Z,98.14
2023-01-28T03:59:45.313Z,96.92
2023-01-28T04:00:54.487Z,95.7
2023-01-28T04:02:03.656Z,97.41
2023-01-28T04:03:11.854Z,96.67
2023-01-28T04:04:20.166Z,97.65
2023-01-28T04:05:28.240Z,100.58
2023-01-28T04:06:36.534Z,100.83
2023-01-28T04:07:44.693Z,101.07
2023-01-28T04:08:52.804Z,101.07
2023-01-28T04:10:02.091Z,100.34
2023-01-28T04:11:11.159Z,98.87
2023-01-28T04:12:20.347Z,99.36
2023-01-28T04:13:29.499Z,99.6
2023-01-28T04:14:38.683Z,100.34
2023-01-28T04:15:47.847Z,99.36
2023-01-28T04:16:57.025Z,102.29
2023-01-28T04:18:06.241Z,99.85
2023-01-28T04:19:15.378Z,100.34
2023-01-28T04:20:24.581Z,99.6
2023-01-28T04:21:33.717Z,101.31
2023-01-28T04:22:42.886Z,100.34
2023-01-28T04:23:51.237Z,98.63
2023-01-28T04:25:00.273Z,100.34
2023-01-28T04:26:09.562Z,100.09
2023-01-28T04:27:18.592Z,101.8
2023-01-28T04:28:27.766Z,99.6
2023-01-28T04:29:37.136Z,101.8
2023-01-28T04:30:46.199Z,100.83
2023-01-28T04:31:54.319Z,98.14
2023-01-28T04:33:02.503Z,100.34
2023-01-28T04:34:10.750Z,98.14
2023-01-28T04:35:18.908Z,98.14
2023-01-28T04:36:28.075Z,98.38
2023-01-28T04:37:37.238Z,98.87
2023-01-28T04:38:46.403Z,98.38
2023-01-28T04:39:55.639Z,99.36
2023-01-28T04:41:04.766Z,97.9
2023-01-28T04:42:13.916Z,97.9
2023-01-28T04:43:23.104Z,97.16
2023-01-28T04:44:32.261Z,93.26
2023-01-28T04:45:41.458Z,93.26
2023-01-28T04:46:50.614Z,92.04
2023-01-28T04:47:59.821Z,91.55
2023-01-28T04:49:08.989Z,90.82
2023-01-28T04:50:17.192Z,88.62
2023-01-28T04:51:26.320Z,88.86
2023-01-28T04:52:35.585Z,87.4
2023-01-28T04:53:44.704Z,87.15
2023-01-28T04:54:53.843Z,84.96
2023-01-28T04:56:03.057Z,86.91
2023-01-28T04:57:12.189Z,84.96
2023-01-28T04:58:20.391Z,85.44
2023-01-28T04:59:28.572Z,80.81
2023-01-28T05:00:36.833Z,79.83
2023-01-28T05:01:44.955Z,79.58
2023-01-28T05:02:54.147Z,79.34
2023-01-28T05:04:03.305Z,78.12
2023-01-28T05:05:12.485Z,78.36
2023-01-28T05:06:21.680Z,78.61
2023-01-28T05:07:30.855Z,79.58
2023-01-28T05:08:40.009Z,77.63
2023-01-28T05:09:49.222Z,78.61
2023-01-28T05:10:58.350Z,79.83
2023-01-28T05:12:07.581Z,83.49
2023-01-28T05:13:16.712Z,84.71
2023-01-28T05:14:25.861Z,84.96
2023-01-28T05:15:35.056Z,87.4
2023-01-28T05:16:43.221Z,86.18
2023-01-28T05:17:52.400Z,86.42
2023-01-28T05:19:01.567Z,86.91
2023-01-28T05:20:10.748Z,86.18
2023-01-28T05:21:19.920Z,86.18
2023-01-28T05:22:29.091Z,86.18
2023-01-28T05:23:38.260Z,83.49
2023-01-28T05:24:46.478Z,85.2
2023-01-28T05:25:54.643Z,85.44
2023-01-28T05:27:03.021Z,84.96
2023-01-28T05:28:11.057Z,84.96
2023-01-28T05:29:20.202Z,85.2
2023-01-28T05:30:29.449Z,86.18
2023-01-28T05:31:38.729Z,86.91
2023-01-28T05:32:47.761Z,88.37
2023-01-28T05:33:56.901Z,88.62
2023-01-28T05:35:06.084Z,89.59
2023-01-28T05:36:15.389Z,92.04
2023-01-28T05:37:24.437Z,93.5
2023-01-28T05:38:33.609Z,92.77
2023-01-28T05:39:42.816Z,94.48
2023-01-28T05:40:51.935Z,93.75
2023-01-28T05:42:01.169Z,93.01
2023-01-28T05:43:09.343Z,93.99
2023-01-28T05:44:18.526Z,93.99
2023-01-28T05:45:27.824Z,92.52
2023-01-28T05:46:36.871Z,92.04
2023-01-28T05:47:46.004Z,93.01
2023-01-28T05:48:55.156Z,93.5
2023-01-28T05:50:04.426Z,93.5
2023-01-28T05:51:12.575Z,94.97
2023-01-28T05:52:20.720Z,93.75
2023-01-28T05:53:29.906Z,93.75
2023-01-28T05:54:38.087Z,93.5
2023-01-28T05:55:46.279Z,96.67
2023-01-28T05:56:55.444Z,93.99
2023-01-28T05:58:04.628Z,95.21
2023-01-28T05:59:13.816Z,96.92
2023-01-28T06:00:23.013Z,95.21
2023-01-28T06:01:32.206Z,96.43
2023-01-28T06:02:41.329Z,96.19
2023-01-28T06:03:50.503Z,100.34
2023-01-28T06:04:59.689Z,97.41
2023-01-28T06:06:08.913Z,98.14
2023-01-28T06:07:18.007Z,100.34
2023-01-28T06:08:27.183Z,99.12
2023-01-28T06:09:36.361Z,99.6
2023-01-28T06:10:44.629Z,97.9
2023-01-28T06:11:53.709Z,102.29
2023-01-28T06:13:02.916Z,99.12
2023-01-28T06:14:12.061Z,99.36
2023-01-28T06:15:21.300Z,98.63
2023-01-28T06:16:30.484Z,98.63
2023-01-28T06:17:39.590Z,102.05
2023-01-28T06:18:47.790Z,99.6
2023-01-28T06:19:55.971Z,100.34
2023-01-28T06:21:04.155Z,98.14
2023-01-28T06:22:12.397Z,99.85
2023-01-28T06:23:21.525Z,101.31
2023-01-28T06:24:30.706Z,99.85
2023-01-28T06:25:38.937Z,101.07
2023-01-28T06:26:48.069Z,101.31
2023-01-28T06:27:57.254Z,100.83
2023-01-28T06:29:06.486Z,102.05
2023-01-28T06:30:15.747Z,100.58
2023-01-28T06:31:24.836Z,100.58
2023-01-28T06:32:33.961Z,103.27
2023-01-28T06:33:43.124Z,102.05
2023-01-28T06:34:52.274Z,113.76
2023-01-28T06:36:01.454Z,102.53
2023-01-28T06:37:10.636Z,104
2023-01-28T06:38:19.863Z,101.31
2023-01-28T06:39:28.966Z,99.6
2023-01-28T06:40:37.178Z,96.92
2023-01-28T06:41:46.433Z,97.65
2023-01-28T06:42:55.539Z,93.26
2023-01-28T06:44:04.681Z,93.75
2023-01-28T06:45:12.959Z,94.97
2023-01-28T06:46:21.073Z,91.79
2023-01-28T06:47:29.345Z,90.82
2023-01-28T06:48:37.587Z,91.3
2023-01-28T06:49:46.619Z,89.84
2023-01-28T06:50:55.808Z,90.82
2023-01-28T06:52:04.958Z,90.57
2023-01-28T06:53:14.139Z,87.89
2023-01-28T06:54:23.313Z,88.62
2023-01-28T06:55:32.530Z,89.59
2023-01-28T06:56:41.705Z,87.4
2023-01-28T06:57:50.906Z,87.64
2023-01-28T06:59:00.004Z,87.15
2023-01-28T07:00:09.273Z,86.91
2023-01-28T07:01:18.463Z,86.91
2023-01-28T07:02:27.518Z,86.91
2023-01-28T07:03:35.779Z,86.42
2023-01-28T07:04:44.874Z,87.15
2023-01-28T07:05:54.063Z,86.42
2023-01-28T07:07:03.228Z,87.4
2023-01-28T07:08:12.412Z,87.64
2023-01-28T07:09:21.575Z,86.91
2023-01-28T07:10:31.010Z,87.4
2023-01-28T07:11:39.021Z,87.64
2023-01-28T07:12:47.201Z,90.08
2023-01-28T07:13:55.437Z,87.89
2023-01-28T07:15:03.627Z,90.82
2023-01-28T07:16:12.724Z,88.86
2023-01-28T07:17:21.884Z,88.86
2023-01-28T07:18:31.144Z,90.57
2023-01-28T07:19:40.210Z,90.82
2023-01-28T07:20:49.472Z,91.55
2023-01-28T07:21:58.551Z,93.5
2023-01-28T07:23:07.738Z,96.92
2023-01-28T07:24:16.909Z,94.97
2023-01-28T07:25:26.078Z,95.7
2023-01-28T07:26:35.248Z,95.45
2023-01-28T07:27:44.422Z,98.38
2023-01-28T07:28:53.587Z,95.21
2023-01-28T07:30:01.784Z,96.92
2023-01-28T07:31:10.967Z,95.45
2023-01-28T07:32:20.233Z,95.21
2023-01-28T07:33:29.305Z,96.19
2023-01-28T07:34:38.517Z,96.67
2023-01-28T07:35:47.649Z,98.14
2023-01-28T07:36:56.887Z,98.14
2023-01-28T07:38:05.042Z,97.16
2023-01-28T07:39:13.204Z,97.9
2023-01-28T07:40:21.482Z,96.92
2023-01-28T07:41:29.684Z,96.43
2023-01-28T07:42:38.762Z,96.19
2023-01-28T07:43:47.988Z,100.09
2023-01-28T07:44:57.120Z,103.27
2023-01-28T07:46:06.297Z,104.73
2023-01-28T07:47:15.454Z,104.24
2023-01-28T07:48:24.693Z,103.02
2023-01-28T07:49:33.797Z,103.51
2023-01-28T07:50:43.070Z,103.02
2023-01-28T07:51:52.150Z,102.53
2023-01-28T07:53:01.315Z,99.6
2023-01-28T07:54:10.491Z,101.8
2023-01-28T07:55:19.671Z,99.36
2023-01-28T07:56:27.870Z,101.8
2023-01-28T07:57:37.028Z,98.14
2023-01-28T07:58:46.237Z,99.6
2023-01-28T07:59:55.383Z,98.38
2023-01-28T08:01:04.544Z,99.85
2023-01-28T08:02:13.730Z,97.9
2023-01-28T08:03:22.907Z,99.36
2023-01-28T08:04:31.173Z,99.36
2023-01-28T08:05:39.343Z,102.53
2023-01-28T08:06:47.551Z,98.63
2023-01-28T08:07:55.734Z,100.58
2023-01-28T08:09:04.899Z,101.07
2023-01-28T08:10:14.021Z,100.83
2023-01-28T08:11:23.299Z,102.53
2023-01-28T08:12:32.432Z,100.09
2023-01-28T08:13:41.595Z,102.53
2023-01-28T08:14:50.717Z,101.8
2023-01-28T08:15:59.874Z,101.31
2023-01-28T08:17:09.035Z,99.6
2023-01-28T08:18:18.215Z,98.14
2023-01-28T08:19:27.399Z,98.63
2023-01-28T08:20:36.564Z,97.9
2023-01-28T08:21:45.824Z,95.94
2023-01-28T08:22:53.912Z,98.63
2023-01-28T08:24:03.173Z,99.6
2023-01-28T08:25:12.267Z,99.6
2023-01-28T08:26:21.536Z,101.8
2023-01-28T08:27:30.618Z,102.05
2023-01-28T08:28:39.790Z,100.34
2023-01-28T08:29:48.967Z,100.34
2023-01-28T08:30:57.204Z,99.6
2023-01-28T08:32:05.353Z,102.29
2023-01-28T08:33:14.595Z,101.56
2023-01-28T08:34:23.735Z,102.29
2023-01-28T08:35:31.991Z,100.58
2023-01-28T08:36:40.217Z,101.8
2023-01-28T08:37:49.247Z,101.07
2023-01-28T08:38:58.596Z,103.51
2023-01-28T08:40:07.820Z,101.8
2023-01-28T08:41:16.783Z,101.31
2023-01-28T08:42:25.974Z,101.07
2023-01-28T08:43:35.259Z,101.8
2023-01-28T08:44:44.318Z,102.53
2023-01-28T08:45:53.566Z,101.07
2023-01-28T08:47:02.764Z,101.07
2023-01-28T08:48:11.885Z,103.27
2023-01-28T08:49:21.008Z,100.83
2023-01-28T08:50:30.202Z,104
2023-01-28T08:51:38.469Z,102.53
2023-01-28T08:52:47.530Z,103.02
2023-01-28T08:53:56.728Z,103.27
2023-01-28T08:55:05.935Z,103.27
2023-01-28T08:56:15.084Z,100.83
2023-01-28T08:57:24.208Z,103.51
2023-01-28T08:58:33.487Z,102.78
2023-01-28T08:59:41.683Z,101.8
2023-01-28T09:00:50.841Z,102.05
2023-01-28T09:01:58.982Z,101.8
2023-01-28T09:03:07.197Z,101.07
2023-01-28T09:04:16.415Z,101.8
2023-01-28T09:05:24.598Z,102.29
2023-01-28T09:06:33.807Z,101.07
2023-01-28T09:07:42.928Z,103.02
2023-01-28T09:08:52.106Z,104.24
2023-01-28T09:10:01.229Z,106.44
2023-01-28T09:11:10.444Z,104.98
2023-01-28T09:12:19.548Z,105.95
2023-01-28T09:13:28.763Z,106.93
2023-01-28T09:14:37.899Z,107.91
2023-01-28T09:15:47.059Z,108.15
2023-01-28T09:16:56.227Z,107.66
2023-01-28T09:18:05.490Z,105.95
2023-01-28T09:19:14.594Z,106.68
2023-01-28T09:20:22.996Z,109.13
2023-01-28T09:21:32.027Z,110.59
2023-01-28T09:22:41.099Z,108.15
2023-01-28T09:23:50.355Z,112.06
2023-01-28T09:24:59.564Z,108.64
2023-01-28T09:26:08.654Z,110.59
2023-01-28T09:27:16.886Z,109.37
2023-01-28T09:28:25.095Z,107.42
2023-01-28T09:29:33.295Z,110.59
2023-01-28T09:30:41.524Z,109.86
2023-01-28T09:31:50.577Z,108.88
2023-01-28T09:32:59.971Z,108.88
2023-01-28T09:34:08.937Z,109.13
2023-01-28T09:35:18.093Z,111.32
2023-01-28T09:36:27.347Z,109.86
2023-01-28T09:37:36.452Z,110.59
2023-01-28T09:38:45.629Z,110.35
2023-01-28T09:39:54.804Z,111.32
2023-01-28T09:41:04.038Z,111.81
2023-01-28T09:42:13.189Z,109.37
2023-01-28T09:43:22.353Z,111.08
2023-01-28T09:44:31.517Z,111.32
2023-01-28T09:45:39.712Z,111.08
2023-01-28T09:46:48.860Z,111.08
2023-01-28T09:47:58.041Z,108.39
2023-01-28T09:49:07.192Z,109.13
2023-01-28T09:50:16.358Z,111.81
2023-01-28T09:51:25.632Z,108.88
2023-01-28T09:52:34.700Z,109.13
2023-01-28T09:53:43.105Z,106.93
2023-01-28T09:54:51.091Z,106.2
2023-01-28T09:55:59.349Z,104
2023-01-28T09:57:07.478Z,102.78
2023-01-28T09:58:16.710Z,101.8
2023-01-28T09:59:25.823Z,101.8
2023-01-28T10:00:35.036Z,100.09
2023-01-28T10:01:44.196Z,99.85
2023-01-28T10:02:53.369Z,99.6
2023-01-28T10:04:02.509Z,99.36
2023-01-28T10:05:11.680Z,100.34
2023-01-28T10:06:20.858Z,102.29
2023-01-28T10:07:30.101Z,102.53
2023-01-28T10:08:39.316Z,102.29
2023-01-28T10:09:48.553Z,103.02
2023-01-28T10:10:57.698Z,103.27
2023-01-28T10:12:05.867Z,103.02
2023-01-28T10:13:14.933Z,104.98
2023-01-28T10:14:24.082Z,106.44
2023-01-28T10:15:33.273Z,106.93
2023-01-28T10:16:41.450Z,107.91
2023-01-28T10:17:50.617Z,105.95
2023-01-28T10:18:59.811Z,108.64
2023-01-28T10:20:08.117Z,106.44
2023-01-28T10:21:16.265Z,106.44
2023-01-28T10:22:25.435Z,106.2
2023-01-28T10:23:34.591Z,107.17
2023-01-28T10:24:43.766Z,107.91
2023-01-28T10:25:52.956Z,108.39
2023-01-28T10:27:01.145Z,107.91
2023-01-28T10:28:09.285Z,106.68
2023-01-28T10:29:18.493Z,106.68
2023-01-28T10:30:27.771Z,105.46
2023-01-28T10:32:46.029Z,107.42
2023-01-28T10:33:55.116Z,106.68
2023-01-28T10:35:04.385Z,106.44
2023-01-28T10:36:13.527Z,108.15
2023-01-28T10:37:22.728Z,108.39
2023-01-28T10:38:32.012Z,108.88
2023-01-28T10:39:41.099Z,106.44
2023-01-28T10:40:50.327Z,108.64
2023-01-28T10:41:59.415Z,106.68
2023-01-28T10:43:07.569Z,105.71
2023-01-28T10:44:16.776Z,108.15
2023-01-28T10:45:25.975Z,108.15
2023-01-28T10:46:35.062Z,108.39
2023-01-28T10:47:44.198Z,107.91
2023-01-28T10:48:53.392Z,106.2
2023-01-28T10:50:02.603Z,109.86
2023-01-28T10:51:11.755Z,108.39
2023-01-28T10:52:19.992Z,107.91
2023-01-28T10:53:28.211Z,108.39
2023-01-28T10:54:37.382Z,106.68
2023-01-28T10:55:46.582Z,108.64
2023-01-28T10:56:55.635Z,107.66
2023-01-28T10:58:04.890Z,107.17
2023-01-28T10:59:13.980Z,106.44
2023-01-28T11:00:23.147Z,109.61
2023-01-28T11:01:32.389Z,108.88
2023-01-28T11:02:41.574Z,108.15
2023-01-28T11:03:50.807Z,109.13
2023-01-28T11:04:59.939Z,109.13
2023-01-28T11:06:09.131Z,108.88
2023-01-28T11:07:18.208Z,108.15
2023-01-28T11:08:26.507Z,111.32
2023-01-28T11:09:35.596Z,109.13
2023-01-28T11:10:44.711Z,109.13
2023-01-28T11:11:53.890Z,111.32
2023-01-28T11:13:03.054Z,110.1
2023-01-28T11:14:12.412Z,108.64
2023-01-28T11:15:21.628Z,107.91
2023-01-28T11:17:38.861Z,111.08
2023-01-28T11:18:47.170Z,107.91
2023-01-28T11:19:55.315Z,106.93
2023-01-28T11:21:03.524Z,108.88
2023-01-28T11:22:11.566Z,109.86
2023-01-28T11:23:19.903Z,109.13
2023-01-28T11:24:27.923Z,108.39
2023-01-28T11:25:37.274Z,107.66
2023-01-28T11:26:46.449Z,107.42
2023-01-28T11:27:55.621Z,106.68
2023-01-28T11:29:04.804Z,108.88
2023-01-28T11:30:13.818Z,109.86
2023-01-28T11:31:22.958Z,106.93
2023-01-28T11:32:32.330Z,109.13
2023-01-28T11:33:41.530Z,112.06
2023-01-28T11:34:50.661Z,110.83
2023-01-28T11:35:59.850Z,113.76
2023-01-28T11:37:08.841Z,110.1
2023-01-28T11:38:18.222Z,114.5
2023-01-28T11:39:26.318Z,114.25
2023-01-28T11:40:35.550Z,114.25
2023-01-28T11:41:44.695Z,112.06
2023-01-28T11:42:53.826Z,115.96
2023-01-28T11:44:02.874Z,112.79
2023-01-28T11:45:12.277Z,113.52
2023-01-28T11:46:21.238Z,114.25
2023-01-28T11:47:29.481Z,114.74
2023-01-28T11:48:37.642Z,114.74
2023-01-28T11:49:46.929Z,113.28
2023-01-28T11:50:56.075Z,115.23
2023-01-28T11:52:04.173Z,113.28
2023-01-28T11:53:13.319Z,111.57
2023-01-28T11:54:21.515Z,112.06
2023-01-28T11:55:30.684Z,112.3
2023-01-28T11:56:39.892Z,111.08
2023-01-28T11:57:49.031Z,111.08
2023-01-28T11:58:58.212Z,108.88
2023-01-28T12:00:07.379Z,109.13
2023-01-28T12:01:16.556Z,108.64
2023-01-28T12:02:25.712Z,108.88
2023-01-28T12:03:34.908Z,108.15
2023-01-28T12:04:44.063Z,109.86
2023-01-28T12:05:53.244Z,108.88
2023-01-28T12:07:02.417Z,110.83
2023-01-28T12:08:11.592Z,106.44
2023-01-28T12:09:19.777Z,108.15
2023-01-28T12:10:28.945Z,107.17
2023-01-28T12:11:38.110Z,105.46
2023-01-28T12:12:47.303Z,107.66
2023-01-28T12:13:56.461Z,107.66
2023-01-28T12:15:05.634Z,107.91
2023-01-28T12:16:13.828Z,108.64
2023-01-28T12:17:22.020Z,106.68
2023-01-28T12:18:30.209Z,109.86
2023-01-28T12:19:38.411Z,108.88
2023-01-28T12:20:47.586Z,106.44
2023-01-28T12:21:56.743Z,107.91
2023-01-28T12:23:05.917Z,107.66
2023-01-28T12:24:15.105Z,105.71
2023-01-28T12:25:24.260Z,107.17
2023-01-28T12:26:33.442Z,106.2
2023-01-28T12:27:42.606Z,106.2
2023-01-28T12:28:51.776Z,106.68
2023-01-28T12:30:00.940Z,109.13
2023-01-28T12:31:10.125Z,106.44
2023-01-28T12:32:19.301Z,106.68
2023-01-28T12:33:28.474Z,107.42
2023-01-28T12:34:36.655Z,109.13
2023-01-28T12:35:45.863Z,106.44
2023-01-28T12:36:55.003Z,106.44
2023-01-28T12:38:04.167Z,105.46
2023-01-28T12:39:13.354Z,109.37
2023-01-28T12:40:22.526Z,105.46
2023-01-28T12:41:31.715Z,108.88
2023-01-28T12:42:39.968Z,106.68
2023-01-28T12:43:48.085Z,106.2
2023-01-28T12:44:56.265Z,104.73
2023-01-28T12:46:04.470Z,106.2
2023-01-28T12:47:13.628Z,106.44
2023-01-28T12:48:22.811Z,106.44
2023-01-28T12:49:31.980Z,106.44
2023-01-28T12:50:41.146Z,105.22
2023-01-28T12:51:50.319Z,108.39
2023-01-28T12:52:59.496Z,105.71
2023-01-28T12:54:08.668Z,105.22
2023-01-28T12:55:17.842Z,106.93
2023-01-28T12:56:27.015Z,107.66
2023-01-28T12:57:36.186Z,105.71
2023-01-28T12:58:45.368Z,106.68
2023-01-28T12:59:54.533Z,106.2
2023-01-28T13:01:02.739Z,107.42
2023-01-28T13:02:11.891Z,104.73
2023-01-28T13:03:21.060Z,106.44
2023-01-28T13:04:30.228Z,106.44
2023-01-28T13:05:39.420Z,106.93
2023-01-28T13:06:48.593Z,107.42
2023-01-28T13:07:57.758Z,109.13
2023-01-28T13:09:05.946Z,105.22
2023-01-28T13:10:14.153Z,105.95
2023-01-28T13:11:22.332Z,104.73
2023-01-28T13:12:30.527Z,104.98
2023-01-28T13:13:39.699Z,107.66
2023-01-28T13:14:48.868Z,108.64
2023-01-28T13:15:58.152Z,105.22
2023-01-28T13:17:07.368Z,105.95
2023-01-28T13:18:16.380Z,108.88
2023-01-28T13:19:25.559Z,106.68
2023-01-28T13:20:34.727Z,106.44
2023-01-28T13:21:43.896Z,105.95
2023-01-28T13:22:53.069Z,107.17
2023-01-28T13:24:02.239Z,108.15
2023-01-28T13:25:11.422Z,108.64
2023-01-28T13:26:20.594Z,105.95
2023-01-28T13:27:28.771Z,110.35
2023-01-28T13:28:37.961Z,107.42
2023-01-28T13:29:47.153Z,108.88
2023-01-28T13:30:56.294Z,106.68
2023-01-28T13:32:05.558Z,108.15
2023-01-28T13:33:14.635Z,109.86
2023-01-28T13:34:23.816Z,107.17
2023-01-28T13:35:32.025Z,109.61
2023-01-28T13:36:40.203Z,109.61
2023-01-28T13:37:49.393Z,107.66
2023-01-28T13:38:58.549Z,105.22
2023-01-28T13:40:07.741Z,107.91
2023-01-28T13:41:16.886Z,109.86
2023-01-28T13:42:26.055Z,109.86
2023-01-28T13:43:35.247Z,108.39
2023-01-28T13:44:44.418Z,109.13
2023-01-28T13:45:53.582Z,107.42
2023-01-28T13:47:02.766Z,109.86
2023-01-28T13:48:11.926Z,106.44
2023-01-28T13:49:21.095Z,107.91
2023-01-28T13:50:30.265Z,108.88
2023-01-28T13:51:38.461Z,108.39
2023-01-28T13:52:47.641Z,109.86
2023-01-28T13:53:56.802Z,107.91
2023-01-28T13:55:05.998Z,107.91
2023-01-28T13:56:15.214Z,107.91
2023-01-28T13:57:24.317Z,107.42
2023-01-28T13:58:33.503Z,108.64
2023-01-28T13:59:41.707Z,109.61
2023-01-28T14:00:49.979Z,109.13
2023-01-28T14:01:58.245Z,106.2
2023-01-28T14:03:06.257Z,109.61
2023-01-28T14:04:15.700Z,108.64
2023-01-28T14:05:24.714Z,107.17
2023-01-28T14:06:32.996Z,108.64
2023-01-28T14:07:41.201Z,107.42
2023-01-28T14:08:50.371Z,106.44
2023-01-28T14:09:59.494Z,108.39
2023-01-28T14:11:08.600Z,108.64
2023-01-28T14:12:17.889Z,109.61
2023-01-28T14:13:27.028Z,108.15
2023-01-28T14:14:36.214Z,108.15
2023-01-28T14:15:45.406Z,107.66
2023-01-28T14:16:54.540Z,107.91
2023-01-28T14:18:03.740Z,109.13
2023-01-28T14:19:12.886Z,112.54
2023-01-28T14:20:22.143Z,109.61
2023-01-28T14:21:31.272Z,110.83
2023-01-28T14:22:39.404Z,110.59
2023-01-28T14:23:48.719Z,109.61
2023-01-28T14:24:57.743Z,111.08
2023-01-28T14:26:06.911Z,107.91
2023-01-28T14:27:16.039Z,112.79
2023-01-28T14:28:25.263Z,111.32
2023-01-28T14:29:34.284Z,111.32
2023-01-28T14:30:42.471Z,110.1
2023-01-28T14:31:50.663Z,112.06
2023-01-28T14:32:58.975Z,110.59
2023-01-28T14:34:07.121Z,109.61
2023-01-28T14:35:16.403Z,111.57
2023-01-28T14:36:25.515Z,110.1
2023-01-28T14:37:34.657Z,108.88